createdAt,value
2016-05-18T00:00:12.994Z,68.82
2016-05-18T00:01:13.058Z,69.01
2016-05-18T00:02:13.062Z,68.91
2016-05-18T00:03:13.111Z,68.34
2016-05-18T00:04:13.145Z,68.82
2016-05-18T00:05:13.227Z,68.05
2016-05-18T00:06:13.213Z,67.86
2016-05-18T00:07:13.263Z,67.2
2016-05-18T00:08:13.234Z,67.77
2016-05-18T00:09:13.346Z,66.82
2016-05-18T00:10:13.380Z,65.86
2016-05-18T00:11:13.399Z,64.81
2016-05-18T00:12:13.463Z,64.81
2016-05-18T00:13:13.482Z,64.72
2016-05-18T00:14:13.516Z,64.34
2016-05-18T00:15:13.565Z,63.96
2016-05-18T00:16:13.615Z,63.86
2016-05-18T00:17:13.634Z,63.57
2016-05-18T00:18:13.668Z,63
2016-05-18T00:19:13.717Z,63.76
2016-05-18T00:20:13.767Z,63.2
2016-05-18T00:21:13.784Z,63.29
2016-05-18T00:22:13.834Z,62.91
2016-05-18T00:23:14.103Z,62.91
2016-05-18T00:24:13.902Z,62.91
2016-05-18T00:25:13.937Z,62.15
2016-05-18T00:26:13.814Z,62.43
2016-05-18T00:27:14.003Z,62.05
2016-05-18T00:28:13.897Z,61.96
2016-05-18T00:29:14.087Z,61.76
2016-05-18T00:30:14.137Z,62.34
2016-05-18T00:31:14.014Z,62.05
2016-05-18T00:32:14.221Z,61.96
2016-05-18T00:33:14.239Z,61.48
2016-05-18T00:34:14.304Z,61.76
2016-05-18T00:35:14.307Z,61.86
2016-05-18T00:36:14.341Z,61.76
2016-05-18T00:37:14.405Z,61.48
2016-05-18T00:38:14.456Z,61.57
2016-05-18T00:39:14.302Z,61.67
2016-05-18T00:40:14.507Z,61.96
2016-05-18T00:41:14.574Z,61.67
2016-05-18T00:42:14.607Z,61.67
2016-05-18T00:43:14.624Z,62.15
2016-05-18T00:44:14.503Z,62.24
2016-05-18T00:45:14.693Z,62.05
2016-05-18T00:46:14.758Z,62.24
2016-05-18T00:47:14.604Z,62.34
2016-05-18T00:48:14.810Z,62.24
2016-05-18T00:49:14.844Z,61.86
2016-05-18T00:50:14.738Z,61.86
2016-05-18T00:51:14.943Z,62.05
2016-05-18T00:52:14.962Z,61.86
2016-05-18T00:53:15.012Z,61.1
2016-05-18T00:54:15.029Z,61.67
2016-05-18T00:55:15.064Z,61.57
2016-05-18T00:56:15.113Z,61.86
2016-05-18T00:57:14.975Z,61.67
2016-05-18T00:58:15.197Z,61.57
2016-05-18T00:59:15.059Z,61.76
2016-05-18T01:00:15.264Z,61.57
2016-05-18T01:01:15.158Z,61.76
2016-05-18T01:02:15.161Z,61.76
2016-05-18T01:03:15.366Z,61.57
2016-05-18T01:04:15.244Z,61.76
2016-05-18T01:05:15.450Z,61.76
2016-05-18T01:06:15.328Z,61.96
2016-05-18T01:07:15.518Z,62.34
2016-05-18T01:08:15.599Z,62.34
2016-05-18T01:09:15.586Z,61.57
2016-05-18T01:10:15.479Z,61.86
2016-05-18T01:11:15.669Z,61.76
2016-05-18T01:12:15.702Z,61.57
2016-05-18T01:13:15.581Z,61.86
2016-05-18T01:14:15.771Z,61.86
2016-05-18T01:15:15.820Z,61.76
2016-05-18T01:16:15.838Z,61.48
2016-05-18T01:17:15.888Z,61.96
2016-05-18T01:18:15.923Z,62.15
2016-05-18T01:19:16.003Z,61.76
2016-05-18T01:20:16.007Z,61.76
2016-05-18T01:21:16.040Z,61.48
2016-05-18T01:22:16.074Z,61.67
2016-05-18T01:23:16.123Z,61.67
2016-05-18T01:24:16.141Z,61.48
2016-05-18T01:25:16.192Z,61.48
2016-05-18T01:26:16.225Z,61.57
2016-05-18T01:27:16.306Z,61.48
2016-05-18T01:28:16.293Z,61.1
2016-05-18T01:29:16.342Z,60.91
2016-05-18T01:30:16.408Z,61.1
2016-05-18T01:31:16.410Z,61.1
2016-05-18T01:32:16.461Z,61.38
2016-05-18T01:33:16.478Z,61.29
2016-05-18T01:34:16.528Z,61.29
2016-05-18T01:35:16.577Z,60.91
2016-05-18T01:36:16.596Z,61.19
2016-05-18T01:37:16.630Z,61.19
2016-05-18T01:38:16.679Z,61.1
2016-05-18T01:39:16.713Z,60.52
2016-05-18T01:40:16.747Z,60.62
2016-05-18T01:41:16.797Z,61.1
2016-05-18T01:42:16.815Z,61.1
2016-05-18T01:43:16.865Z,60.62
2016-05-18T01:44:16.899Z,61.29
2016-05-18T01:45:16.948Z,61
2016-05-18T01:46:16.966Z,61.29
2016-05-18T01:47:17.016Z,61.1
2016-05-18T01:48:17.035Z,60.52
2016-05-18T01:49:17.084Z,60.62
2016-05-18T01:50:17.118Z,60.72
2016-05-18T01:51:17.167Z,60.52
2016-05-18T01:52:17.201Z,60.91
2016-05-18T01:53:17.579Z,60.43
2016-05-18T01:54:17.269Z,60.62
2016-05-18T01:55:17.318Z,60.72
2016-05-18T01:56:17.337Z,60.62
2016-05-18T01:57:17.387Z,60.62
2016-05-18T01:58:17.420Z,60.43
2016-05-18T01:59:17.454Z,59.95
2016-05-18T02:00:17.504Z,60.43
2016-05-18T02:01:17.569Z,60.43
2016-05-18T02:02:17.573Z,60.43
2016-05-18T02:03:17.606Z,60.43
2016-05-18T02:04:17.686Z,60.43
2016-05-18T02:05:17.674Z,60.24
2016-05-18T02:06:17.723Z,60.24
2016-05-18T02:07:17.757Z,60.24
2016-05-18T02:08:17.822Z,60.72
2016-05-18T02:09:17.841Z,60.14
2016-05-18T02:10:17.858Z,60.14
2016-05-18T02:11:17.941Z,60.14
2016-05-18T02:12:17.974Z,59.86
2016-05-18T02:13:17.991Z,59.76
2016-05-18T02:14:18.027Z,59.67
2016-05-18T02:15:18.044Z,59.86
2016-05-18T02:16:18.110Z,60.05
2016-05-18T02:17:18.127Z,59.76
2016-05-18T02:18:18.162Z,60.24
2016-05-18T02:19:18.212Z,60.05
2016-05-18T02:20:18.104Z,60.05
2016-05-18T02:21:18.279Z,59.67
2016-05-18T02:22:18.313Z,59.76
2016-05-18T02:23:18.394Z,59.76
2016-05-18T02:24:18.396Z,59.95
2016-05-18T02:25:18.431Z,59.67
2016-05-18T02:26:18.465Z,59.86
2016-05-18T02:27:18.498Z,59.86
2016-05-18T02:28:18.532Z,59.86
2016-05-18T02:29:18.581Z,59.86
2016-05-18T02:30:18.648Z,60.11
2016-05-18T02:31:18.650Z,60.24
2016-05-18T02:32:18.684Z,59.76
2016-05-18T02:33:18.717Z,60.05
2016-05-18T02:34:18.798Z,60.14
2016-05-18T02:35:18.786Z,59.92
2016-05-18T02:36:18.836Z,59.45
2016-05-18T02:37:18.869Z,59.54
2016-05-18T02:38:18.778Z,60.24
2016-05-18T02:39:18.937Z,59.74
2016-05-18T02:40:18.986Z,59.45
2016-05-18T02:41:19.036Z,59.64
2016-05-18T02:42:18.930Z,59.26
2016-05-18T02:43:19.104Z,59.16
2016-05-18T02:44:19.154Z,59.06
2016-05-18T02:45:19.171Z,59.26
2016-05-18T02:46:19.222Z,59.26
2016-05-18T02:47:19.240Z,59.26
2016-05-18T02:48:19.305Z,59.26
2016-05-18T02:49:19.323Z,59.06
2016-05-18T02:50:19.374Z,59.26
2016-05-18T02:51:19.407Z,59.26
2016-05-18T02:52:19.268Z,59.06
2016-05-18T02:53:19.475Z,58.78
2016-05-18T02:54:19.509Z,58.87
2016-05-18T02:55:19.542Z,59.26
2016-05-18T02:56:19.576Z,59.54
2016-05-18T02:57:19.610Z,58.69
2016-05-18T02:58:19.660Z,58.78
2016-05-18T02:59:19.569Z,58.69
2016-05-18T03:00:19.728Z,58.87
2016-05-18T03:01:19.606Z,58.69
2016-05-18T03:02:19.842Z,58.97
2016-05-18T03:03:19.845Z,59.09
2016-05-18T03:04:19.879Z,59.09
2016-05-18T03:05:19.914Z,58.97
2016-05-18T03:06:19.978Z,58.97
2016-05-18T03:07:19.997Z,58.69
2016-05-18T03:08:20.046Z,58.97
2016-05-18T03:09:20.064Z,58.72
2016-05-18T03:10:20.130Z,58.87
2016-05-18T03:11:20.022Z,58.87
2016-05-18T03:12:20.167Z,58.59
2016-05-18T03:13:20.247Z,58.97
2016-05-18T03:14:20.265Z,58.3
2016-05-18T03:15:20.143Z,58.43
2016-05-18T03:16:20.333Z,58.43
2016-05-18T03:17:20.383Z,58.24
2016-05-18T03:18:20.416Z,58.62
2016-05-18T03:19:20.436Z,58.24
2016-05-18T03:20:20.485Z,58.33
2016-05-18T03:21:20.549Z,58.72
2016-05-18T03:22:20.552Z,58.72
2016-05-18T03:23:20.601Z,58.24
2016-05-18T03:24:20.637Z,58.14
2016-05-18T03:25:20.670Z,58.04
2016-05-18T03:26:20.688Z,58.04
2016-05-18T03:27:20.738Z,58.24
2016-05-18T03:28:20.772Z,58.14
2016-05-18T03:29:20.821Z,58.24
2016-05-18T03:30:20.840Z,58.04
2016-05-18T03:31:20.890Z,58.33
2016-05-18T03:32:20.923Z,58.14
2016-05-18T03:33:20.973Z,58.33
2016-05-18T03:34:20.991Z,58.04
2016-05-18T03:35:21.041Z,57.95
2016-05-18T03:36:21.059Z,58.04
2016-05-18T03:37:21.124Z,58.04
2016-05-18T03:38:21.143Z,58.52
2016-05-18T03:39:21.207Z,57.57
2016-05-18T03:40:21.225Z,57.67
2016-05-18T03:41:21.260Z,57.67
2016-05-18T03:42:21.310Z,57.67
2016-05-18T03:43:21.328Z,57.67
2016-05-18T03:44:21.378Z,57.76
2016-05-18T03:45:21.411Z,57.86
2016-05-18T03:46:21.446Z,57.95
2016-05-18T03:47:21.495Z,57.76
2016-05-18T03:48:21.513Z,58.04
2016-05-18T03:49:21.563Z,57.86
2016-05-18T03:50:21.628Z,57.19
2016-05-18T03:51:21.474Z,57.67
2016-05-18T03:52:21.508Z,57.67
2016-05-18T03:53:21.729Z,57.48
2016-05-18T03:54:21.749Z,57.57
2016-05-18T03:55:21.626Z,57.19
2016-05-18T03:56:21.816Z,57.38
2016-05-18T03:57:21.882Z,57.28
2016-05-18T03:58:21.884Z,57.28
2016-05-18T03:59:21.934Z,56.81
2016-05-18T04:00:21.967Z,57
2016-05-18T04:01:22.001Z,56.9
2016-05-18T04:02:22.051Z,57.19
2016-05-18T04:03:22.085Z,57.28
2016-05-18T04:04:21.978Z,56.9
2016-05-18T04:05:22.168Z,56.81
2016-05-18T04:06:22.203Z,57.28
2016-05-18T04:07:22.236Z,57.19
2016-05-18T04:08:22.536Z,56.65
2016-05-18T04:09:22.320Z,57.03
2016-05-18T04:10:22.338Z,56.84
2016-05-18T04:11:22.419Z,56.65
2016-05-18T04:12:22.422Z,56.65
2016-05-18T04:13:22.456Z,57.31
2016-05-18T04:14:22.489Z,56.93
2016-05-18T04:15:22.555Z,56.65
2016-05-18T04:16:22.572Z,56.84
2016-05-18T04:17:22.607Z,56.74
2016-05-18T04:18:22.672Z,56.74
2016-05-18T04:19:22.690Z,56.55
2016-05-18T04:20:22.725Z,56.74
2016-05-18T04:21:22.758Z,56.65
2016-05-18T04:22:22.808Z,56.26
2016-05-18T04:23:22.841Z,55.98
2016-05-18T04:24:22.891Z,56.74
2016-05-18T04:25:22.941Z,56.36
2016-05-18T04:26:22.974Z,56.65
2016-05-18T04:27:22.978Z,56.93
2016-05-18T04:28:23.027Z,56.46
2016-05-18T04:29:23.061Z,55.88
2016-05-18T04:30:23.110Z,55.98
2016-05-18T04:31:23.128Z,56.17
2016-05-18T04:32:23.178Z,55.79
2016-05-18T04:33:23.228Z,55.6
2016-05-18T04:34:23.262Z,56.36
2016-05-18T04:35:23.296Z,56.17
2016-05-18T04:36:23.331Z,56.36
2016-05-18T04:37:23.379Z,56.26
2016-05-18T04:38:23.414Z,56.17
2016-05-18T04:39:23.448Z,56.36
2016-05-18T04:40:23.528Z,55.88
2016-05-18T04:41:23.515Z,55.5
2016-05-18T04:42:23.549Z,55.6
2016-05-18T04:43:23.599Z,55.79
2016-05-18T04:44:23.680Z,55.79
2016-05-18T04:45:23.667Z,55.6
2016-05-18T04:46:23.544Z,55.88
2016-05-18T04:47:23.750Z,55.69
2016-05-18T04:48:23.815Z,55.79
2016-05-18T04:49:23.833Z,55.41
2016-05-18T04:50:23.696Z,55.79
2016-05-18T04:51:23.902Z,55.21
2016-05-18T04:52:23.952Z,55.34
2016-05-18T04:53:23.891Z,54.96
2016-05-18T04:54:24.004Z,55.24
2016-05-18T04:55:24.099Z,55.12
2016-05-18T04:56:24.087Z,55.31
2016-05-18T04:57:24.120Z,55.53
2016-05-18T04:58:24.171Z,55.69
2016-05-18T04:59:24.251Z,55.34
2016-05-18T05:00:24.238Z,55.05
2016-05-18T05:01:24.804Z,54.96
2016-05-18T05:02:24.306Z,55.15
2016-05-18T05:03:24.356Z,55.34
2016-05-18T05:04:24.248Z,54.96
2016-05-18T05:05:24.423Z,55.53
2016-05-18T05:06:24.520Z,55.15
2016-05-18T05:07:24.522Z,55.34
2016-05-18T05:08:24.494Z,54.96
2016-05-18T05:09:24.591Z,54.67
2016-05-18T05:10:24.655Z,54.48
2016-05-18T05:11:24.674Z,54.67
2016-05-18T05:12:24.536Z,54.1
2016-05-18T05:13:24.742Z,54.57
2016-05-18T05:14:24.775Z,54.1
2016-05-18T05:15:24.825Z,54.57
2016-05-18T05:16:24.859Z,54.38
2016-05-18T05:17:24.941Z,54.1
2016-05-18T05:18:24.928Z,53.81
2016-05-18T05:19:24.977Z,54
2016-05-18T05:20:25.026Z,53.72
2016-05-18T05:21:25.091Z,54.03
2016-05-18T05:22:25.454Z,53.74
2016-05-18T05:23:25.535Z,53.84
2016-05-18T05:24:25.163Z,54.13
2016-05-18T05:25:25.212Z,53.93
2016-05-18T05:26:25.246Z,54.13
2016-05-18T05:27:25.279Z,54.22
2016-05-18T05:28:27.236Z,53.74
2016-05-18T05:29:25.613Z,53.74
2016-05-18T05:30:25.396Z,53.93
2016-05-18T05:31:25.274Z,53.74
2016-05-18T05:32:25.496Z,53.74
2016-05-18T05:33:26.155Z,53.93
2016-05-18T05:34:25.548Z,53.65
2016-05-18T05:35:25.598Z,53.74
2016-05-18T05:36:28.194Z,53.84
2016-05-18T05:37:25.682Z,53.65
2016-05-18T05:38:26.043Z,53.96
2016-05-18T05:39:25.765Z,53.93
2016-05-18T05:40:25.784Z,53.17
2016-05-18T05:41:25.895Z,53.74
2016-05-18T05:42:25.867Z,53.65
2016-05-18T05:43:25.900Z,52.98
2016-05-18T05:44:25.934Z,53.96
2016-05-18T05:45:25.984Z,53.39
2016-05-18T05:46:26.455Z,53.29
2016-05-18T05:47:25.896Z,53.29
2016-05-18T05:48:26.086Z,53.2
2016-05-18T05:49:25.963Z,52.91
2016-05-18T05:50:26.185Z,52.62
2016-05-18T05:51:26.266Z,53.49
2016-05-18T05:52:26.252Z,53.1
2016-05-18T05:53:26.365Z,52.43
2016-05-18T05:54:26.336Z,52.91
2016-05-18T05:55:26.371Z,52.15
2016-05-18T05:56:26.405Z,52.05
2016-05-18T05:57:26.611Z,52.43
2016-05-18T05:58:26.488Z,52.53
2016-05-18T05:59:26.521Z,52.91
2016-05-18T06:00:26.556Z,52.53
2016-05-18T06:01:27.168Z,52.36
2016-05-18T06:02:26.655Z,52.08
2016-05-18T06:03:26.689Z,51.98
2016-05-18T06:04:26.707Z,51.98
2016-05-18T06:05:26.773Z,52.55
2016-05-18T06:06:27.931Z,51.7
2016-05-18T06:07:27.231Z,51.6
2016-05-18T06:08:27.156Z,51.98
2016-05-18T06:09:26.923Z,51.62
2016-05-18T06:10:26.973Z,51.15
2016-05-18T06:11:27.007Z,50.95
2016-05-18T06:12:27.431Z,51.05
2016-05-18T06:13:28.528Z,51.34
2016-05-18T06:14:27.124Z,50.86
2016-05-18T06:15:27.158Z,51.05
2016-05-18T06:16:27.193Z,51.34
2016-05-18T06:17:27.086Z,50.48
2016-05-18T06:18:27.275Z,50.19
2016-05-18T06:19:27.310Z,50.95
2016-05-18T06:20:27.360Z,50.19
2016-05-18T06:21:27.409Z,50.19
2016-05-18T06:22:27.318Z,50.57
2016-05-18T06:23:27.821Z,50.19
2016-05-18T06:24:27.371Z,50.19
2016-05-18T06:25:27.607Z,49.62
2016-05-18T06:26:27.657Z,49.33
2016-05-18T06:27:27.644Z,49.74
2016-05-18T06:28:27.943Z,49.43
2016-05-18T06:29:27.727Z,49.26
2016-05-18T06:30:27.777Z,49.26
2016-05-18T06:31:27.810Z,49.16
2016-05-18T06:32:27.829Z,49.26
2016-05-18T06:33:27.879Z,48.97
2016-05-18T06:34:27.913Z,48.21
2016-05-18T06:35:27.963Z,48.3
2016-05-18T06:36:28.074Z,48.68
2016-05-18T06:37:28.046Z,48.88
2016-05-18T06:38:28.017Z,48.78
2016-05-18T06:39:28.176Z,48.88
2016-05-18T06:40:28.164Z,48.49
2016-05-18T06:41:28.198Z,48.3
2016-05-18T06:42:28.403Z,48.39
2016-05-18T06:43:28.280Z,48.39
2016-05-18T06:44:28.611Z,48.59
2016-05-18T06:45:28.395Z,48.11
2016-05-18T06:46:28.695Z,48.33
2016-05-18T06:47:28.447Z,48.3
2016-05-18T06:48:28.498Z,47.18
2016-05-18T06:49:29.438Z,47.18
2016-05-18T06:50:28.566Z,47.56
2016-05-18T06:51:28.459Z,47.18
2016-05-18T06:52:28.649Z,46.98
2016-05-18T06:53:28.558Z,47.27
2016-05-18T06:54:29.327Z,47.27
2016-05-18T06:55:28.766Z,47.37
2016-05-18T06:56:29.128Z,47.27
2016-05-18T06:57:28.866Z,47.37
2016-05-18T06:58:28.993Z,46.89
2016-05-18T06:59:28.933Z,46.31
2016-05-18T07:00:28.968Z,46.7
2016-05-18T07:01:29.048Z,46.41
2016-05-18T07:02:29.051Z,46.8
2016-05-18T07:03:29.085Z,46.8
2016-05-18T07:04:29.134Z,47.47
2016-05-18T07:05:29.184Z,46.8
2016-05-18T07:06:29.202Z,46.34
2016-05-18T07:07:29.345Z,46.05
2016-05-18T07:08:29.301Z,46.62
2016-05-18T07:09:29.335Z,47.47
2016-05-18T07:10:29.260Z,46.62
2016-05-18T07:11:29.418Z,46.62
2016-05-18T07:12:29.453Z,46.44
2016-05-18T07:13:29.548Z,47.39
2016-05-18T07:14:29.568Z,46.53
2016-05-18T07:15:29.929Z,46.62
2016-05-18T07:16:29.651Z,47.49
2016-05-18T07:17:29.653Z,46.72
2016-05-18T07:18:30.000Z,46.34
2016-05-18T07:19:29.737Z,46.34
2016-05-18T07:20:29.786Z,45.86
2016-05-18T07:21:30.274Z,45.67
2016-05-18T07:22:29.855Z,45.86
2016-05-18T07:23:29.904Z,45.31
2016-05-18T07:24:29.953Z,45.38
2016-05-18T07:25:30.144Z,44.83
2016-05-18T07:26:30.038Z,44.45
2016-05-18T07:27:30.071Z,45.02
2016-05-18T07:28:30.058Z,44.83
2016-05-18T07:29:30.186Z,44.73
2016-05-18T07:30:30.189Z,45.02
2016-05-18T07:31:30.427Z,44.54
2016-05-18T07:32:30.304Z,45.12
2016-05-18T07:33:30.368Z,44.73
2016-05-18T07:34:30.355Z,44.83
2016-05-18T07:35:30.390Z,44.26
2016-05-18T07:36:30.283Z,44.64
2016-05-18T07:37:30.504Z,44.83
2016-05-18T07:38:31.445Z,44.73
2016-05-18T07:39:30.556Z,45.31
2016-05-18T07:40:30.529Z,45.5
2016-05-18T07:41:30.531Z,45.76
2016-05-18T07:42:30.534Z,45.48
2016-05-18T07:43:30.723Z,45.59
2016-05-18T07:44:30.867Z,45.48
2016-05-18T07:45:30.651Z,45.67
2016-05-18T07:46:30.842Z,45.5
2016-05-18T07:47:30.890Z,45.31
2016-05-18T07:48:30.972Z,45.59
2016-05-18T07:49:30.974Z,45.59
2016-05-18T07:50:30.852Z,45.5
2016-05-18T07:51:31.073Z,44.93
2016-05-18T07:52:31.091Z,44.83
2016-05-18T07:53:31.172Z,44.64
2016-05-18T07:54:31.175Z,44.66
2016-05-18T07:55:31.241Z,44.18
2016-05-18T07:56:31.258Z,44.56
2016-05-18T07:57:31.292Z,43.91
2016-05-18T07:58:31.357Z,43.34
2016-05-18T07:59:31.392Z,43.63
2016-05-18T08:00:31.270Z,43.53
2016-05-18T08:01:31.460Z,43.65
2016-05-18T08:02:31.369Z,43.27
2016-05-18T08:03:32.871Z,42.69
2016-05-18T08:04:32.655Z,42.6
2016-05-18T08:05:31.799Z,42.69
2016-05-18T08:06:31.723Z,42.69
2016-05-18T08:07:32.835Z,43.27
2016-05-18T08:08:31.932Z,42.52
2016-05-18T08:09:31.810Z,42.02
2016-05-18T08:10:31.843Z,42.6
2016-05-18T08:11:31.893Z,41.83
2016-05-18T08:12:31.926Z,41.63
2016-05-18T08:13:31.960Z,40.87
2016-05-18T08:14:32.042Z,41.54
2016-05-18T08:15:32.059Z,41.73
2016-05-18T08:16:32.093Z,42.02
2016-05-18T08:17:32.174Z,42.57
2016-05-18T08:18:32.208Z,42.69
2016-05-18T08:19:32.211Z,42.67
2016-05-18T08:20:32.261Z,42.57
2016-05-18T08:21:32.154Z,43.84
2016-05-18T08:22:32.189Z,42.98
2016-05-18T08:23:32.862Z,43.36
2016-05-18T08:24:32.444Z,43.07
2016-05-18T08:25:32.493Z,43
2016-05-18T08:26:32.511Z,42.71
2016-05-18T08:27:32.555Z,42.23
2016-05-18T08:28:32.679Z,41.49
2016-05-18T08:29:32.755Z,41.58
2016-05-18T08:30:33.128Z,41.58
2016-05-18T08:31:33.298Z,41.2
2016-05-18T08:32:33.055Z,40.52
2016-05-18T08:33:33.088Z,40.25
2016-05-18T08:34:33.357Z,39.58
2016-05-18T08:35:34.937Z,40.16
2016-05-18T08:36:40.549Z,39.78
2016-05-18T08:37:33.314Z,39.78
2016-05-18T08:38:33.307Z,40.55
2016-05-18T08:39:33.377Z,40.45
2016-05-18T08:40:33.417Z,39.68
2016-05-18T08:41:33.456Z,39.78
2016-05-18T08:42:33.495Z,39.87
2016-05-18T08:43:33.609Z,40.25
2016-05-18T08:44:33.474Z,40.45
2016-05-18T08:45:33.682Z,40.45
2016-05-18T08:46:33.687Z,40.35
2016-05-18T08:47:33.722Z,40.55
2016-05-18T08:48:33.804Z,39.49
2016-05-18T08:49:33.854Z,38.53
2016-05-18T08:50:33.701Z,38.53
2016-05-18T08:51:33.939Z,38.53
2016-05-18T08:52:33.989Z,38.72
2016-05-18T08:53:34.008Z,38.43
2016-05-18T08:54:34.026Z,39.01
2016-05-18T08:55:33.904Z,38.64
2016-05-18T08:56:34.110Z,39.01
2016-05-18T08:57:34.269Z,39.01
2016-05-18T08:58:34.193Z,39.11
2016-05-18T08:59:34.133Z,38.81
2016-05-18T09:00:35.824Z,39.29
2016-05-18T09:01:34.341Z,39.56
2016-05-18T09:02:35.485Z,39.28
2016-05-18T09:03:34.425Z,39.28
2016-05-18T09:04:34.444Z,39.28
2016-05-18T09:05:35.430Z,40.23
2016-05-18T09:06:34.543Z,40.05
2016-05-18T09:07:34.576Z,39.97
2016-05-18T09:08:34.876Z,40.25
2016-05-18T09:09:34.676Z,40.45
2016-05-18T09:10:34.710Z,40.64
2016-05-18T09:11:34.759Z,40.45
2016-05-18T09:12:34.637Z,38.72
2016-05-18T09:13:35.296Z,38.53
2016-05-18T09:14:35.033Z,39.22
2016-05-18T09:15:35.270Z,39.03
2016-05-18T09:16:34.992Z,38.74
2016-05-18T09:17:35.042Z,38.64
2016-05-18T09:18:35.090Z,38.35
2016-05-18T09:19:35.093Z,38.16
2016-05-18T09:20:35.502Z,37.87
2016-05-18T09:21:35.208Z,37.97
2016-05-18T09:22:35.320Z,37.79
2016-05-18T09:23:35.558Z,37.41
2016-05-18T09:24:35.388Z,37.12
2016-05-18T09:25:36.297Z,36.83
2016-05-18T09:26:35.394Z,36.76
2016-05-18T09:27:35.427Z,35.99
2016-05-18T09:28:35.321Z,35.99
2016-05-18T09:29:35.541Z,35.12
2016-05-18T09:30:35.576Z,35.22
2016-05-18T09:31:35.610Z,35.6
2016-05-18T09:32:35.660Z,35.24
2016-05-18T09:33:35.552Z,34.92
2016-05-18T09:34:35.743Z,34.66
2016-05-18T09:35:36.465Z,34.94
2016-05-18T09:36:35.904Z,35.04
2016-05-18T09:37:35.891Z,35.33
2016-05-18T09:38:36.191Z,34.58
2016-05-18T09:39:36.038Z,34.29
2016-05-18T09:40:36.009Z,33.42
2016-05-18T09:41:36.402Z,34.59
2016-05-18T09:42:36.123Z,33.61
2016-05-18T09:43:36.142Z,33.53
2016-05-18T09:44:36.192Z,33.82
2016-05-18T09:45:36.273Z,34.01
2016-05-18T09:46:36.275Z,33.94
2016-05-18T09:47:36.325Z,33.65
2016-05-18T09:48:36.375Z,32.49
2016-05-18T09:49:36.439Z,32.03
2016-05-18T09:50:36.505Z,31.45
2016-05-18T09:51:36.336Z,31.15
2016-05-18T09:52:36.573Z,30.96
2016-05-18T09:53:36.872Z,30.38
2016-05-18T09:54:36.641Z,30.85
2016-05-18T09:55:36.722Z,30.94
2016-05-18T09:56:36.740Z,31.04
2016-05-18T09:57:36.805Z,31.04
2016-05-18T09:58:36.667Z,31.04
2016-05-18T09:59:36.888Z,31.35
2016-05-18T10:00:36.782Z,30.87
2016-05-18T10:01:37.019Z,30.96
2016-05-18T10:02:37.006Z,31.17
2016-05-18T10:03:37.071Z,30.3
2016-05-18T10:04:37.105Z,28.28
2016-05-18T10:05:37.139Z,28.77
2016-05-18T10:06:37.173Z,28
2016-05-18T10:07:37.238Z,28.09
2016-05-18T10:08:37.272Z,28.09
2016-05-18T10:09:37.321Z,28.4
2016-05-18T10:10:38.340Z,28.4
2016-05-18T10:11:37.421Z,28.4
2016-05-18T10:12:37.470Z,27.92
2016-05-18T10:13:37.504Z,27.06
2016-05-18T10:14:37.382Z,27.15
2016-05-18T10:15:37.681Z,27.06
2016-05-18T10:16:37.637Z,27.34
2016-05-18T10:17:37.718Z,27.73
2016-05-18T10:18:37.596Z,27.25
2016-05-18T10:19:37.786Z,27.06
2016-05-18T10:20:37.898Z,27.25
2016-05-18T10:21:37.901Z,26.98
2016-05-18T10:22:37.919Z,26.59
2016-05-18T10:23:37.984Z,26.5
2016-05-18T10:24:38.050Z,25.83
2016-05-18T10:25:38.067Z,26.21
2016-05-18T10:26:38.117Z,26.4
2016-05-18T10:27:38.167Z,26.4
2016-05-18T10:28:38.263Z,26.1
2016-05-18T10:29:38.266Z,26.01
2016-05-18T10:30:38.300Z,25.99
2016-05-18T10:31:38.366Z,26.87
2016-05-18T10:32:38.414Z,27.25
2016-05-18T10:33:38.292Z,27.45
2016-05-18T10:34:38.499Z,27.24
2016-05-18T10:35:38.627Z,27.34
2016-05-18T10:36:38.582Z,27.34
2016-05-18T10:37:38.631Z,27.24
2016-05-18T10:38:38.743Z,27.72
2016-05-18T10:39:38.730Z,27.51
2016-05-18T10:40:38.811Z,27.42
2016-05-18T10:41:38.658Z,27.12
2016-05-18T10:42:38.879Z,28.18
2016-05-18T10:43:38.913Z,28.37
2016-05-18T10:44:38.947Z,28.64
2016-05-18T10:45:39.012Z,29.13
2016-05-18T10:46:39.046Z,29.32
2016-05-18T10:47:39.096Z,29.61
2016-05-18T10:48:39.146Z,29.9
2016-05-18T10:49:39.257Z,31.06
2016-05-18T10:50:39.228Z,32.1
2016-05-18T10:51:39.279Z,31.04
2016-05-18T10:52:39.312Z,30.85
2016-05-18T10:53:39.253Z,30.83
2016-05-18T10:54:39.412Z,30.93
2016-05-18T10:55:39.289Z,31.32
2016-05-18T10:56:39.354Z,30.45
2016-05-18T10:57:39.576Z,30.35
2016-05-18T10:58:39.453Z,30.07
2016-05-18T10:59:39.628Z,30.26
2016-05-18T11:00:39.709Z,29.87
2016-05-18T11:01:39.618Z,29.98
2016-05-18T11:02:39.761Z,29.02
2016-05-18T11:03:39.702Z,29.31
2016-05-18T11:04:39.891Z,29.6
2016-05-18T11:05:39.894Z,28.92
2016-05-18T11:06:39.944Z,29.11
2016-05-18T11:07:40.041Z,28.84
2016-05-18T11:08:39.871Z,29.03
2016-05-18T11:09:39.920Z,29.22
2016-05-18T11:10:40.111Z,29.42
2016-05-18T11:11:40.176Z,29.61
2016-05-18T11:12:40.241Z,29.5
2016-05-18T11:13:40.150Z,30.08
2016-05-18T11:14:40.293Z,29.69
2016-05-18T11:15:40.389Z,29.98
2016-05-18T11:16:40.424Z,30.35
2016-05-18T11:17:40.442Z,30.55
2016-05-18T11:18:40.476Z,30.64
2016-05-18T11:19:40.540Z,30.91
2016-05-18T11:20:40.575Z,31.4
2016-05-18T11:21:40.593Z,31.3
2016-05-18T11:22:40.674Z,30.35
2016-05-18T11:23:40.723Z,28.08
2016-05-18T11:24:40.773Z,26.48
2016-05-18T11:25:40.792Z,24.22
2016-05-18T11:26:40.825Z,22.99
2016-05-18T11:27:40.970Z,20.9
2016-05-18T11:28:40.987Z,19.96
2016-05-18T11:29:41.208Z,18.24
2016-05-18T11:30:41.070Z,17.08
2016-05-18T11:31:41.120Z,16.98
2016-05-18T11:32:41.154Z,17.06
2016-05-18T11:33:41.172Z,17.05
2016-05-18T11:34:41.253Z,17.82
2016-05-18T11:35:41.288Z,18.29
2016-05-18T11:36:41.180Z,18.76
2016-05-18T11:37:41.386Z,19.71
2016-05-18T11:38:41.436Z,20.29
2016-05-18T11:39:41.329Z,20.47
2016-05-18T11:40:41.519Z,21.14
2016-05-18T11:41:41.585Z,21.7
2016-05-18T11:42:41.635Z,21.88
2016-05-18T11:43:41.684Z,22.65
2016-05-18T11:44:41.952Z,22.92
2016-05-18T11:45:41.845Z,23.4
2016-05-18T11:46:42.113Z,23.97
2016-05-18T11:47:41.866Z,24.44
2016-05-18T11:48:41.900Z,25.12
2016-05-18T11:49:41.951Z,25.21
2016-05-18T11:50:41.999Z,25.97
2016-05-18T11:51:42.064Z,25.97
2016-05-18T11:52:42.099Z,25.87
2016-05-18T11:53:42.132Z,25.86
2016-05-18T11:54:42.182Z,26.15
2016-05-18T11:55:42.794Z,26.06
2016-05-18T11:56:42.312Z,26.91
2016-05-18T11:57:42.393Z,27.19
2016-05-18T11:58:42.380Z,27.38
2016-05-18T11:59:42.508Z,27.38
2016-05-18T12:00:42.448Z,28.15
2016-05-18T12:01:42.497Z,27.96
2016-05-18T12:02:43.672Z,27.86
2016-05-18T12:03:42.597Z,27.76
2016-05-18T12:04:42.662Z,28.25
2016-05-18T12:05:42.524Z,28.25
2016-05-18T12:06:42.730Z,28.05
2016-05-18T12:07:42.780Z,27.59
2016-05-18T12:08:42.829Z,27.29
2016-05-18T12:09:42.691Z,27.28
2016-05-18T12:10:42.944Z,27.57
2016-05-18T12:11:42.963Z,27.59
2016-05-18T12:12:42.980Z,27.01
2016-05-18T12:13:42.890Z,27.29
2016-05-18T12:14:43.063Z,27.49
2016-05-18T12:15:43.129Z,27.39
2016-05-18T12:16:43.273Z,27.01
2016-05-18T12:17:43.228Z,27.4
2016-05-18T12:18:43.247Z,27.4
2016-05-18T12:19:43.499Z,28.08
2016-05-18T12:20:43.361Z,28.28
2016-05-18T12:21:43.380Z,27.33
2016-05-18T12:22:43.429Z,26.15
2016-05-18T12:23:43.728Z,26.06
2016-05-18T12:24:43.529Z,25.86
2016-05-18T12:25:43.562Z,25.48
2016-05-18T12:26:43.721Z,25.86
2016-05-18T12:27:43.677Z,25.86
2016-05-18T12:28:43.961Z,25.67
2016-05-18T12:29:43.761Z,25.96
2016-05-18T12:30:43.794Z,25.57
2016-05-18T12:31:43.703Z,25.76
2016-05-18T12:32:43.878Z,26.15
2016-05-18T12:33:43.974Z,26.06
2016-05-18T12:34:43.978Z,26.06
2016-05-18T12:35:44.667Z,26.44
2016-05-18T12:36:44.060Z,26.06
2016-05-18T12:37:44.142Z,25.67
2016-05-18T12:38:44.144Z,25.86
2016-05-18T12:39:44.209Z,25.46
2016-05-18T12:40:44.258Z,25.46
2016-05-18T12:41:44.308Z,26.14
2016-05-18T12:42:44.561Z,26.33
2016-05-18T12:43:44.391Z,26.23
2016-05-18T12:44:44.473Z,26.14
2016-05-18T12:45:44.835Z,25.76
2016-05-18T12:46:45.369Z,26.15
2016-05-18T12:47:45.293Z,26.25
2016-05-18T12:48:44.858Z,26.06
2016-05-18T12:49:44.721Z,25.86
2016-05-18T12:50:44.723Z,25.97
2016-05-18T12:51:44.757Z,25.21
2016-05-18T12:52:44.807Z,25.13
2016-05-18T12:53:44.856Z,23.97
2016-05-18T12:54:45.250Z,23.69
2016-05-18T12:55:44.924Z,24.17